Terminal Aerodrome Forecast
Issued by NWS

Home | Current Version | Previous Version | Text Only | Print | Product List | Glossary On
Versions: 1 2 3 4 5 6 7 8 9 10 11 12 13 14 15 16 17 18 19 20 21 22 23 24 25 26 27
000
FTUS43 KLSX 172300
TAFCPS
TAF
KCPS 172320Z 1800/1824 34006KT P6SM OVC012
     FM180600 VRB03KT 2SM BR OVC005
     FM181500 VRB03KT 6SM BR OVC012
     FM182000 VRB04KT P6SM BKN025=

USA.gov is the U.S. government's official web portal to all federal, state and local government web resources and services.